sensor_id;sensor_type;location;lat;lon;timestamp;pressure;altitude;pressure_sealevel;temperature;humidity
56420;BME280;42323;52.170;7.538;2023-04-22T00:00:53;100496.06;;;10.23;99.60
56420;BME280;42323;52.170;7.538;2023-04-22T00:03:20;100489.56;;;10.19;99.70
56420;BME280;42323;52.170;7.538;2023-04-22T00:05:50;100463.88;;;9.99;99.65
56420;BME280;42323;52.170;7.538;2023-04-22T00:08:16;100481.88;;;10.02;99.19
56420;BME280;42323;52.170;7.538;2023-04-22T00:10:43;100485.16;;;9.96;99.38
56420;BME280;42323;52.170;7.538;2023-04-22T00:13:09;100488.16;;;9.93;99.86
56420;BME280;42323;52.170;7.538;2023-04-22T00:15:36;100498.50;;;9.87;99.97
56420;BME280;42323;52.170;7.538;2023-04-22T00:18:03;100483.19;;;9.75;99.93
56420;BME280;42323;52.170;7.538;2023-04-22T00:20:29;100483.84;;;9.77;100.00
56420;BME280;42323;52.170;7.538;2023-04-22T00:22:58;100482.75;;;9.72;100.00
56420;BME280;42323;52.170;7.538;2023-04-22T00:25:24;100486.84;;;9.66;99.94
56420;BME280;42323;52.170;7.538;2023-04-22T00:27:51;100481.50;;;9.60;100.00
56420;BME280;42323;52.170;7.538;2023-04-22T00:30:17;100486.44;;;9.54;100.00
56420;BME280;42323;52.170;7.538;2023-04-22T00:32:44;100476.50;;;9.50;100.00
56420;BME280;42323;52.170;7.538;2023-04-22T00:35:11;100487.13;;;9.48;100.00
56420;BME280;42323;52.170;7.538;2023-04-22T00:37:37;100477.69;;;9.39;100.00
56420;BME280;42323;52.170;7.538;2023-04-22T00:40:04;100482.75;;;9.41;99.96
56420;BME280;42323;52.170;7.538;2023-04-22T00:42:32;100475.94;;;9.32;99.94
56420;BME280;42323;52.170;7.538;2023-04-22T00:44:59;100489.81;;;9.32;100.00
56420;BME280;42323;52.170;7.538;2023-04-22T00:47:26;100497.66;;;9.32;100.00
56420;BME280;42323;52.170;7.538;2023-04-22T00:49:53;100500.16;;;9.25;100.00
56420;BME280;42323;52.170;7.538;2023-04-22T00:52:20;100496.72;;;9.25;99.93
56420;BME280;42323;52.170;7.538;2023-04-22T00:54:46;100494.94;;;9.25;100.00
56420;BME280;42323;52.170;7.538;2023-04-22T00:57:15;100498.88;;;9.21;100.00
56420;BME280;42323;52.170;7.538;2023-04-22T00:59:42;100495.16;;;9.16;100.00
56420;BME280;42323;52.170;7.538;2023-04-22T01:02:09;100485.84;;;9.13;100.00
56420;BME280;42323;52.170;7.538;2023-04-22T01:04:37;100483.56;;;9.10;100.00
56420;BME280;42323;52.170;7.538;2023-04-22T01:07:04;100487.34;;;9.08;100.00
56420;BME280;42323;52.170;7.538;2023-04-22T01:09:30;100486.03;;;9.03;100.00
56420;BME280;42323;52.170;7.538;2023-04-22T01:11:57;100485.06;;;9.04;100.00
56420;BME280;42323;52.170;7.538;2023-04-22T01:14:23;100469.84;;;9.08;100.00
56420;BME280;42323;52.170;7.538;2023-04-22T01:16:51;100467.72;;;9.12;100.00
56420;BME280;42323;52.170;7.538;2023-04-22T01:19:19;100480.13;;;9.10;100.00
56420;BME280;42323;52.170;7.538;2023-04-22T01:21:46;100477.84;;;9.07;100.00
56420;BME280;42323;52.170;7.538;2023-04-22T01:24:14;100476.72;;;9.01;100.00
56420;BME280;42323;52.170;7.538;2023-04-22T01:26:41;100458.31;;;8.94;100.00
56420;BME280;42323;52.170;7.538;2023-04-22T01:29:07;100455.03;;;8.92;100.00
56420;BME280;42323;52.170;7.538;2023-04-22T01:31:36;100457.84;;;8.91;100.00
56420;BME280;42323;52.170;7.538;2023-04-22T01:34:03;100454.13;;;8.85;100.00
56420;BME280;42323;52.170;7.538;2023-04-22T01:36:29;100457.06;;;8.82;100.00
56420;BME280;42323;52.170;7.538;2023-04-22T01:38:58;100457.38;;;8.79;100.00
56420;BME280;42323;52.170;7.538;2023-04-22T01:41:25;100460.97;;;8.78;100.00
56420;BME280;42323;52.170;7.538;2023-04-22T01:43:52;100457.25;;;8.72;100.00
56420;BME280;42323;52.170;7.538;2023-04-22T01:46:19;100452.38;;;8.61;100.00
56420;BME280;42323;52.170;7.538;2023-04-22T01:48:46;100448.16;;;8.60;100.00
56420;BME280;42323;52.170;7.538;2023-04-22T01:51:20;100456.63;;;8.62;100.00
56420;BME280;42323;52.170;7.538;2023-04-22T01:53:47;100452.06;;;8.56;100.00
56420;BME280;42323;52.170;7.538;2023-04-22T01:56:14;100458.75;;;8.59;100.00
56420;BME280;42323;52.170;7.538;2023-04-22T01:58:41;100462.00;;;8.61;100.00
56420;BME280;42323;52.170;7.538;2023-04-22T02:01:09;100463.47;;;8.63;100.00
56420;BME280;42323;52.170;7.538;2023-04-22T02:03:36;100456.31;;;8.57;100.00
56420;BME280;42323;52.170;7.538;2023-04-22T02:06:03;100461.19;;;8.60;100.00
56420;BME280;42323;52.170;7.538;2023-04-22T02:08:30;100449.97;;;8.51;100.00
56420;BME280;42323;52.170;7.538;2023-04-22T02:10:56;100447.03;;;8.46;100.00
56420;BME280;42323;52.170;7.538;2023-04-22T02:13:33;100455.69;;;8.47;100.00
56420;BME280;42323;52.170;7.538;2023-04-22T02:15:59;100452.59;;;8.43;100.00
56420;BME280;42323;52.170;7.538;2023-04-22T02:18:26;100463.53;;;8.47;100.00
56420;BME280;42323;52.170;7.538;2023-04-22T02:20:52;100460.41;;;8.43;100.00
56420;BME280;42323;52.170;7.538;2023-04-22T02:23:19;100460.41;;;8.43;100.00
56420;BME280;42323;52.170;7.538;2023-04-22T02:25:49;100451.91;;;8.41;100.00
56420;BME280;42323;52.170;7.538;2023-04-22T02:28:16;100452.91;;;8.40;100.00
56420;BME280;42323;52.170;7.538;2023-04-22T02:30:46;100447.06;;;8.38;100.00
56420;BME280;42323;52.170;7.538;2023-04-22T02:33:12;100442.28;;;8.42;100.00
56420;BME280;42323;52.170;7.538;2023-04-22T02:35:39;100448.31;;;8.50;100.00
56420;BME280;42323;52.170;7.538;2023-04-22T02:38:05;100459.72;;;8.58;100.00
56420;BME280;42323;52.170;7.538;2023-04-22T02:40:32;100456.78;;;8.61;100.00
56420;BME280;42323;52.170;7.538;2023-04-22T02:42:59;100457.28;;;8.64;100.00
56420;BME280;42323;52.170;7.538;2023-04-22T02:45:25;100449.25;;;8.66;100.00
56420;BME280;42323;52.170;7.538;2023-04-22T02:47:52;100453.81;;;8.72;100.00
56420;BME280;42323;52.170;7.538;2023-04-22T02:50:18;100451.53;;;8.69;100.00
56420;BME280;42323;52.170;7.538;2023-04-22T02:52:45;100454.78;;;8.71;100.00
56420;BME280;42323;52.170;7.538;2023-04-22T02:55:11;100455.59;;;8.71;100.00
56420;BME280;42323;52.170;7.538;2023-04-22T02:57:38;100450.22;;;8.73;100.00
56420;BME280;42323;52.170;7.538;2023-04-22T03:00:04;100453.16;;;8.78;100.00
56420;BME280;42323;52.170;7.538;2023-04-22T03:02:31;100445.13;;;8.79;100.00
56420;BME280;42323;52.170;7.538;2023-04-22T03:04:58;100435.38;;;8.73;100.00
56420;BME280;42323;52.170;7.538;2023-04-22T03:07:26;100431.28;;;8.71;100.00
56420;BME280;42323;52.170;7.538;2023-04-22T03:09:52;100434.56;;;8.73;100.00
56420;BME280;42323;52.170;7.538;2023-04-22T03:12:21;100430.78;;;8.75;100.00
56420;BME280;42323;52.170;7.538;2023-04-22T03:14:47;100437.44;;;8.86;100.00
56420;BME280;42323;52.170;7.538;2023-04-22T03:17:14;100438.25;;;8.87;100.00
56420;BME280;42323;52.170;7.538;2023-04-22T03:19:40;100438.06;;;8.88;100.00
56420;BME280;42323;52.170;7.538;2023-04-22T03:22:08;100448.19;;;8.91;100.00
56420;BME280;42323;52.170;7.538;2023-04-22T03:24:35;100441.97;;;8.92;100.00
56420;BME280;42323;52.170;7.538;2023-04-22T03:27:01;100442.28;;;8.97;100.00
56420;BME280;42323;52.170;7.538;2023-04-22T03:29:29;100430.91;;;8.90;100.00
56420;BME280;42323;52.170;7.538;2023-04-22T03:31:55;100431.72;;;8.91;100.00
56420;BME280;42323;52.170;7.538;2023-04-22T03:34:22;100430.72;;;8.92;100.00
56420;BME280;42323;52.170;7.538;2023-04-22T03:36:48;100429.91;;;8.91;100.00
56420;BME280;42323;52.170;7.538;2023-04-22T03:39:15;100426.31;;;8.92;100.00
56420;BME280;42323;52.170;7.538;2023-04-22T03:41:41;100428.44;;;8.89;100.00
56420;BME280;42323;52.170;7.538;2023-04-22T03:44:08;100431.19;;;8.95;100.00
56420;BME280;42323;52.170;7.538;2023-04-22T03:46:34;100435.75;;;8.93;100.00
56420;BME280;42323;52.170;7.538;2023-04-22T03:49:01;100412.66;;;8.82;100.00
56420;BME280;42323;52.170;7.538;2023-04-22T03:51:27;100426.97;;;8.94;100.00
56420;BME280;42323;52.170;7.538;2023-04-22T03:53:54;100421.06;;;8.92;100.00
56420;BME280;42323;52.170;7.538;2023-04-22T03:56:20;100411.13;;;8.88;100.00
56420;BME280;42323;52.170;7.538;2023-04-22T03:58:47;100421.75;;;8.94;100.00
56420;BME280;42323;52.170;7.538;2023-04-22T04:01:13;100414.56;;;8.88;100.00
56420;BME280;42323;52.170;7.538;2023-04-22T04:03:40;100418.66;;;8.91;100.00
56420;BME280;42323;52.170;7.538;2023-04-22T04:06:06;100411.47;;;8.85;100.00
56420;BME280;42323;52.170;7.538;2023-04-22T04:08:33;100416.53;;;8.86;100.00
56420;BME280;42323;52.170;7.538;2023-04-22T04:11:00;100410.03;;;8.82;100.00
56420;BME280;42323;52.170;7.538;2023-04-22T04:13:26;100421.06;;;8.92;100.00
56420;BME280;42323;52.170;7.538;2023-04-22T04:15:58;100404.47;;;8.85;100.00
56420;BME280;42323;52.170;7.538;2023-04-22T04:18:25;100414.22;;;8.91;100.00
56420;BME280;42323;52.170;7.538;2023-04-22T04:20:52;100412.44;;;8.92;100.00
56420;BME280;42323;52.170;7.538;2023-04-22T04:23:19;100414.88;;;8.93;100.00
56420;BME280;42323;52.170;7.538;2023-04-22T04:25:45;100415.22;;;8.90;100.00
56420;BME280;42323;52.170;7.538;2023-04-22T04:28:12;100406.72;;;8.88;100.00
56420;BME280;42323;52.170;7.538;2023-04-22T04:30:39;100417.47;;;8.93;100.00
56420;BME280;42323;52.170;7.538;2023-04-22T04:33:07;100404.13;;;8.88;100.00
56420;BME280;42323;52.170;7.538;2023-04-22T04:35:34;100416.97;;;8.98;100.00
56420;BME280;42323;52.170;7.538;2023-04-22T04:38:01;100407.88;;;8.94;100.00
56420;BME280;42323;52.170;7.538;2023-04-22T04:40:28;100417.63;;;9.00;100.00
56420;BME280;42323;52.170;7.538;2023-04-22T04:42:55;100416.63;;;9.01;100.00
56420;BME280;42323;52.170;7.538;2023-04-22T04:45:23;100408.16;;;8.99;100.00
56420;BME280;42323;52.170;7.538;2023-04-22T04:47:49;100403.75;;;8.99;100.00
56420;BME280;42323;52.170;7.538;2023-04-22T04:50:18;100405.38;;;9.00;100.00
56420;BME280;42323;52.170;7.538;2023-04-22T04:52:47;100404.38;;;9.01;100.00
56420;BME280;42323;52.170;7.538;2023-04-22T04:55:15;100403.22;;;9.04;100.00
56420;BME280;42323;52.170;7.538;2023-04-22T04:57:43;100402.41;;;9.03;100.00
56420;BME280;42323;52.170;7.538;2023-04-22T05:00:11;100392.78;;;9.04;100.00
56420;BME280;42323;52.170;7.538;2023-04-22T05:02:39;100410.22;;;9.12;100.00
56420;BME280;42323;52.170;7.538;2023-04-22T05:05:07;100387.22;;;9.07;100.00
56420;BME280;42323;52.170;7.538;2023-04-22T05:07:34;100395.34;;;9.12;100.00
56420;BME280;42323;52.170;7.538;2023-04-22T05:10:03;100398.25;;;9.17;100.00
56420;BME280;42323;52.170;7.538;2023-04-22T05:12:30;100401.69;;;9.18;100.00
56420;BME280;42323;52.170;7.538;2023-04-22T05:14:57;100404.94;;;9.20;100.00
56420;BME280;42323;52.170;7.538;2023-04-22T05:17:23;100395.63;;;9.17;100.00
56420;BME280;42323;52.170;7.538;2023-04-22T05:19:50;100396.75;;;9.23;100.00
56420;BME280;42323;52.170;7.538;2023-04-22T05:22:17;100392.97;;;9.25;100.00
56420;BME280;42323;52.170;7.538;2023-04-22T05:24:43;100394.41;;;9.28;100.00
56420;BME280;42323;52.170;7.538;2023-04-22T05:27:10;100402.91;;;9.30;100.00
56420;BME280;42323;52.170;7.538;2023-04-22T05:29:37;100394.41;;;9.28;100.00
56420;BME280;42323;52.170;7.538;2023-04-22T05:32:06;100393.44;;;9.29;100.00
56420;BME280;42323;52.170;7.538;2023-04-22T05:34:34;100394.06;;;9.31;100.00
56420;BME280;42323;52.170;7.538;2023-04-22T05:37:03;100405.47;;;9.38;100.00
56420;BME280;42323;52.170;7.538;2023-04-22T05:39:31;100396.81;;;9.38;100.00
56420;BME280;42323;52.170;7.538;2023-04-22T05:41:57;100398.25;;;9.40;100.00
56420;BME280;42323;52.170;7.538;2023-04-22T05:44:24;100404.97;;;9.43;100.00
56420;BME280;42323;52.170;7.538;2023-04-22T05:46:50;100402.81;;;9.46;100.00
56420;BME280;42323;52.170;7.538;2023-04-22T05:49:17;100395.78;;;9.47;100.00
56420;BME280;42323;52.170;7.538;2023-04-22T05:51:43;100398.50;;;9.53;100.00
56420;BME280;42323;52.170;7.538;2023-04-22T05:54:10;100400.75;;;9.57;100.00
56420;BME280;42323;52.170;7.538;2023-04-22T05:56:36;100404.31;;;9.64;100.00
56420;BME280;42323;52.170;7.538;2023-04-22T05:59:03;100396.56;;;9.70;100.00
56420;BME280;42323;52.170;7.538;2023-04-22T06:01:29;100401.91;;;9.77;100.00
56420;BME280;42323;52.170;7.538;2023-04-22T06:03:56;100403.19;;;9.81;100.00
56420;BME280;42323;52.170;7.538;2023-04-22T06:06:23;100392.34;;;9.84;100.00
56420;BME280;42323;52.170;7.538;2023-04-22T06:08:49;100394.47;;;9.89;100.00
56420;BME280;42323;52.170;7.538;2023-04-22T06:11:16;100389.84;;;9.91;100.00
56420;BME280;42323;52.170;7.538;2023-04-22T06:13:43;100383.91;;;9.97;100.00
56420;BME280;42323;52.170;7.538;2023-04-22T06:16:09;100386.16;;;10.00;100.00
56420;BME280;42323;52.170;7.538;2023-04-22T06:18:36;100382.41;;;10.02;100.00
56420;BME280;42323;52.170;7.538;2023-04-22T06:21:04;100384.47;;;10.07;100.00
56420;BME280;42323;52.170;7.538;2023-04-22T06:23:30;100368.78;;;10.07;100.00
56420;BME280;42323;52.170;7.538;2023-04-22T06:25:57;100388.09;;;10.21;100.00
56420;BME280;42323;52.170;7.538;2023-04-22T06:28:27;100378.25;;;10.23;100.00
56420;BME280;42323;52.170;7.538;2023-04-22T06:30:53;100377.22;;;10.32;100.00
56420;BME280;42323;52.170;7.538;2023-04-22T06:33:20;100384.59;;;10.43;100.00
56420;BME280;42323;52.170;7.538;2023-04-22T06:35:47;100391.75;;;10.49;100.00
56420;BME280;42323;52.170;7.538;2023-04-22T06:38:13;100392.03;;;10.54;100.00
56420;BME280;42323;52.170;7.538;2023-04-22T06:40:40;100389.84;;;10.58;100.00
56420;BME280;42323;52.170;7.538;2023-04-22T06:43:06;100387.56;;;10.70;100.00
56420;BME280;42323;52.170;7.538;2023-04-22T06:45:33;100377.72;;;10.72;100.00
56420;BME280;42323;52.170;7.538;2023-04-22T06:47:59;100380.59;;;10.77;100.00
56420;BME280;42323;52.170;7.538;2023-04-22T06:50:26;100367.16;;;10.80;100.00
56420;BME280;42323;52.170;7.538;2023-04-22T06:52:53;100373.72;;;10.91;100.00
56420;BME280;42323;52.170;7.538;2023-04-22T06:55:19;100368.16;;;11.00;100.00
56420;BME280;42323;52.170;7.538;2023-04-22T06:57:46;100382.88;;;11.16;100.00
56420;BME280;42323;52.170;7.538;2023-04-22T07:00:13;100377.13;;;11.27;100.00
56420;BME280;42323;52.170;7.538;2023-04-22T07:02:40;100369.56;;;11.39;100.00
56420;BME280;42323;52.170;7.538;2023-04-22T07:05:07;100377.19;;;11.55;100.00
56420;BME280;42323;52.170;7.538;2023-04-22T07:07:33;100386.19;;;11.68;100.00
56420;BME280;42323;52.170;7.538;2023-04-22T07:10:00;100374.31;;;11.72;100.00
56420;BME280;42323;52.170;7.538;2023-04-22T07:12:26;100389.97;;;11.87;100.00
56420;BME280;42323;52.170;7.538;2023-04-22T07:14:53;100384.56;;;11.88;100.00
56420;BME280;42323;52.170;7.538;2023-04-22T07:17:21;100392.31;;;11.96;99.50
56420;BME280;42323;52.170;7.538;2023-04-22T07:19:48;100376.47;;;11.90;99.67
56420;BME280;42323;52.170;7.538;2023-04-22T07:22:14;100385.13;;;12.12;99.38
56420;BME280;42323;52.170;7.538;2023-04-22T07:24:41;100379.13;;;12.18;98.89
56420;BME280;42323;52.170;7.538;2023-04-22T07:27:07;100384.25;;;12.33;98.60
56420;BME280;42323;52.170;7.538;2023-04-22T07:29:34;100375.47;;;12.53;98.49
56420;BME280;42323;52.170;7.538;2023-04-22T07:32:00;100377.34;;;12.73;97.75
56420;BME280;42323;52.170;7.538;2023-04-22T07:34:27;100373.38;;;12.90;95.58
56420;BME280;42323;52.170;7.538;2023-04-22T07:36:53;100369.16;;;12.96;94.94
56420;BME280;42323;52.170;7.538;2023-04-22T07:39:21;100365.72;;;13.02;94.32
56420;BME280;42323;52.170;7.538;2023-04-22T07:41:48;100364.72;;;13.03;93.42
56420;BME280;42323;52.170;7.538;2023-04-22T07:44:14;100363.31;;;13.00;93.41
56420;BME280;42323;52.170;7.538;2023-04-22T07:46:43;100368.16;;;13.03;93.84
56420;BME280;42323;52.170;7.538;2023-04-22T07:49:10;100362.09;;;13.03;92.20
56420;BME280;42323;52.170;7.538;2023-04-22T07:51:39;100361.09;;;13.11;92.89
56420;BME280;42323;52.170;7.538;2023-04-22T07:54:06;100349.97;;;13.09;91.79
56420;BME280;42323;52.170;7.538;2023-04-22T07:56:33;100359.91;;;13.13;91.12
56420;BME280;42323;52.170;7.538;2023-04-22T07:58:59;100373.81;;;13.07;90.45
56420;BME280;42323;52.170;7.538;2023-04-22T08:01:26;100364.72;;;13.03;89.86
56420;BME280;42323;52.170;7.538;2023-04-22T08:03:52;100372.81;;;13.01;89.73
56420;BME280;42323;52.170;7.538;2023-04-22T08:06:19;100368.56;;;13.00;88.97
56420;BME280;42323;52.170;7.538;2023-04-22T08:08:46;100363.31;;;13.07;87.63
56420;BME280;42323;52.170;7.538;2023-04-22T08:11:12;100362.91;;;13.17;87.32
56420;BME280;42323;52.170;7.538;2023-04-22T08:13:39;100357.25;;;13.20;86.52
56420;BME280;42323;52.170;7.538;2023-04-22T08:16:05;100348.41;;;13.34;85.79
56420;BME280;42323;52.170;7.538;2023-04-22T08:18:32;100348.84;;;13.44;85.22
56420;BME280;42323;52.170;7.538;2023-04-22T08:21:01;100361.19;;;13.64;83.62
56420;BME280;42323;52.170;7.538;2023-04-22T08:23:27;100352.69;;;13.75;83.18
56420;BME280;42323;52.170;7.538;2023-04-22T08:25:54;100358.53;;;13.90;82.01
56420;BME280;42323;52.170;7.538;2023-04-22T08:28:20;100357.69;;;14.10;80.83
56420;BME280;42323;52.170;7.538;2023-04-22T08:30:47;100360.94;;;14.25;80.47
56420;BME280;42323;52.170;7.538;2023-04-22T08:33:13;100353.56;;;14.40;78.74
56420;BME280;42323;52.170;7.538;2023-04-22T08:35:40;100346.66;;;14.52;77.82
56420;BME280;42323;52.170;7.538;2023-04-22T08:38:06;100354.28;;;14.74;76.56
56420;BME280;42323;52.170;7.538;2023-04-22T08:40:33;100336.38;;;14.83;74.02
56420;BME280;42323;52.170;7.538;2023-04-22T08:43:00;100345.59;;;15.05;74.22
56420;BME280;42323;52.170;7.538;2023-04-22T08:45:28;100339.00;;;15.21;72.94
56420;BME280;42323;52.170;7.538;2023-04-22T08:47:55;100334.34;;;15.48;72.13
56420;BME280;42323;52.170;7.538;2023-04-22T08:50:22;100335.44;;;15.65;71.20
56420;BME280;42323;52.170;7.538;2023-04-22T08:52:49;100334.25;;;15.86;70.85
56420;BME280;42323;52.170;7.538;2023-04-22T08:55:16;100320.00;;;16.05;69.73
56420;BME280;42323;52.170;7.538;2023-04-22T08:57:43;100325.31;;;16.24;69.06
56420;BME280;42323;52.170;7.538;2023-04-22T09:00:10;100296.66;;;16.39;67.75
56420;BME280;42323;52.170;7.538;2023-04-22T09:02:40;100310.44;;;16.60;66.88
56420;BME280;42323;52.170;7.538;2023-04-22T09:05:10;100292.56;;;16.73;66.71
56420;BME280;42323;52.170;7.538;2023-04-22T09:07:39;100297.00;;;16.91;65.56
56420;BME280;42323;52.170;7.538;2023-04-22T09:10:06;100290.84;;;17.21;63.98
56420;BME280;42323;52.170;7.538;2023-04-22T09:12:33;100291.13;;;17.54;63.47
56420;BME280;42323;52.170;7.538;2023-04-22T09:15:00;100295.63;;;17.89;60.47
56420;BME280;42323;52.170;7.538;2023-04-22T09:17:31;100294.16;;;18.22;57.49
56420;BME280;42323;52.170;7.538;2023-04-22T09:22:36;100290.41;;;18.46;nan
56420;BME280;42323;52.170;7.538;2023-04-22T09:25:03;100298.38;;;18.46;nan
56420;BME280;42323;52.170;7.538;2023-04-22T09:27:30;100291.00;;;18.48;nan
56420;BME280;42323;52.170;7.538;2023-04-22T09:29:57;100301.88;;;18.64;nan
56420;BME280;42323;52.170;7.538;2023-04-22T09:32:24;100292.53;;;18.73;nan
56420;BME280;42323;52.170;7.538;2023-04-22T09:34:52;100298.66;;;18.90;nan
56420;BME280;42323;52.170;7.538;2023-04-22T09:37:23;100290.59;;;19.14;nan
56420;BME280;42323;52.170;7.538;2023-04-22T09:39:53;100273.75;;;19.42;nan
56420;BME280;42323;52.170;7.538;2023-04-22T09:42:21;100283.69;;;19.85;nan
56420;BME280;42323;52.170;7.538;2023-04-22T09:44:48;100272.41;;;20.17;nan
56420;BME280;42323;52.170;7.538;2023-04-22T09:47:18;100266.38;;;20.48;nan
56420;BME280;42323;52.170;7.538;2023-04-22T09:49:51;100263.06;;;20.63;nan
56420;BME280;42323;52.170;7.538;2023-04-22T09:52:24;100277.69;;;20.61;nan
56420;BME280;42323;52.170;7.538;2023-04-22T09:54:52;100270.91;;;20.48;nan
56420;BME280;42323;52.170;7.538;2023-04-22T09:57:20;100272.91;;;20.41;nan
56420;BME280;42323;52.170;7.538;2023-04-22T09:59:49;100272.41;;;20.66;nan
56420;BME280;42323;52.170;7.538;2023-04-22T10:02:16;100254.19;;;21.12;nan
56420;BME280;42323;52.170;7.538;2023-04-22T10:04:43;100260.41;;;21.60;nan
56420;BME280;42323;52.170;7.538;2023-04-22T10:07:12;100239.22;;;21.95;nan
56420;BME280;42323;52.170;7.538;2023-04-22T10:09:39;100245.66;;;22.10;nan
56420;BME280;42323;52.170;7.538;2023-04-22T10:12:06;100244.97;;;22.29;nan
56420;BME280;42323;52.170;7.538;2023-04-22T10:14:33;100232.13;;;22.26;nan
56420;BME280;42323;52.170;7.538;2023-04-22T10:17:00;100242.78;;;22.16;nan
56420;BME280;42323;52.170;7.538;2023-04-22T10:19:29;100243.09;;;22.25;nan
56420;BME280;42323;52.170;7.538;2023-04-22T10:22:00;100237.81;;;22.45;nan
56420;BME280;42323;52.170;7.538;2023-04-22T10:24:29;100241.03;;;22.63;nan
56420;BME280;42323;52.170;7.538;2023-04-22T10:27:03;100238.88;;;22.54;nan
56420;BME280;42323;52.170;7.538;2023-04-22T10:29:37;100245.88;;;23.12;nan
56420;BME280;42323;52.170;7.538;2023-04-22T10:34:35;100251.75;;;24.19;nan
56420;BME280;42323;52.170;7.538;2023-04-22T10:37:07;100243.47;;;24.11;nan
56420;BME280;42323;52.170;7.538;2023-04-22T10:39:34;100240.22;;;24.19;nan
56420;BME280;42323;52.170;7.538;2023-04-22T10:44:30;100227.50;;;25.42;nan
56420;BME280;42323;52.170;7.538;2023-04-22T10:47:10;100220.44;;;25.99;nan
56420;BME280;42323;52.170;7.538;2023-04-22T10:49:36;100225.38;;;26.49;nan
56420;BME280;42323;52.170;7.538;2023-04-22T10:52:05;100218.09;;;26.68;nan
56420;BME280;42323;52.170;7.538;2023-04-22T10:59:31;100204.22;;;27.68;nan
56420;BME280;42323;52.170;7.538;2023-04-22T11:02:02;100207.41;;;27.84;nan
56420;BME280;42323;52.170;7.538;2023-04-22T11:04:29;100203.81;;;26.87;nan
56420;BME280;42323;52.170;7.538;2023-04-22T11:10:10;100195.84;;;27.42;nan
56420;BME280;42323;52.170;7.538;2023-04-22T11:12:43;100200.25;;;28.15;nan
56420;BME280;42323;52.170;7.538;2023-04-22T11:15:15;100198.38;;;28.83;nan
56420;BME280;42323;52.170;7.538;2023-04-22T11:17:45;100183.84;;;29.24;nan
56420;BME280;42323;52.170;7.538;2023-04-22T11:20:13;100180.16;;;29.60;nan
56420;BME280;42323;52.170;7.538;2023-04-22T11:22:49;100177.97;;;29.79;nan
56420;BME280;42323;52.170;7.538;2023-04-22T11:25:16;100175.28;;;29.96;nan
56420;BME280;42323;52.170;7.538;2023-04-22T11:27:46;100165.00;;;30.16;nan
56420;BME280;42323;52.170;7.538;2023-04-22T11:30:19;100172.09;;;30.64;nan
56420;BME280;42323;52.170;7.538;2023-04-22T11:32:48;100181.16;;;30.77;nan
56420;BME280;42323;52.170;7.538;2023-04-22T11:35:24;100172.16;;;30.29;nan
56420;BME280;42323;52.170;7.538;2023-04-22T11:38:00;100166.72;;;30.29;nan
56420;BME280;42323;52.170;7.538;2023-04-22T11:40:32;100168.41;;;30.68;nan
56420;BME280;42323;52.170;7.538;2023-04-22T11:43:03;100159.06;;;29.79;nan
56420;BME280;42323;52.170;7.538;2023-04-22T11:45:32;100163.88;;;30.26;nan
56420;BME280;42323;52.170;7.538;2023-04-22T11:48:00;100160.03;;;30.44;nan
56420;BME280;42323;52.170;7.538;2023-04-22T11:50:30;100161.41;;;30.85;nan
56420;BME280;42323;52.170;7.538;2023-04-22T11:53:01;100152.31;;;31.28;nan
56420;BME280;42323;52.170;7.538;2023-04-22T11:55:35;100150.41;;;31.79;nan
56420;BME280;42323;52.170;7.538;2023-04-22T11:58:12;100148.09;;;32.31;nan
56420;BME280;42323;52.170;7.538;2023-04-22T12:03:12;100155.38;;;33.58;nan
56420;BME280;42323;52.170;7.538;2023-04-22T12:08:19;100152.56;;;30.49;nan
56420;BME280;42323;52.170;7.538;2023-04-22T12:10:50;100155.75;;;28.63;nan
56420;BME280;42323;52.170;7.538;2023-04-22T12:15:44;100150.28;;;27.59;nan
56420;BME280;42323;52.170;7.538;2023-04-22T12:18:12;100149.09;;;28.01;nan
56420;BME280;42323;52.170;7.538;2023-04-22T12:20:39;100143.09;;;27.68;nan
56420;BME280;42323;52.170;7.538;2023-04-22T12:23:14;100139.78;;;27.02;nan
56420;BME280;42323;52.170;7.538;2023-04-22T12:25:41;100142.91;;;26.63;nan
56420;BME280;42323;52.170;7.538;2023-04-22T12:28:09;100150.44;;;26.47;nan
56420;BME280;42323;52.170;7.538;2023-04-22T12:30:36;100151.97;;;25.78;nan
56420;BME280;42323;52.170;7.538;2023-04-22T12:33:02;100145.19;;;25.62;nan
56420;BME280;42323;52.170;7.538;2023-04-22T12:35:29;100148.69;;;25.14;nan
56420;BME280;42323;52.170;7.538;2023-04-22T12:37:55;100142.09;;;25.01;nan
56420;BME280;42323;52.170;7.538;2023-04-22T12:40:22;100157.00;;;24.84;nan
56420;BME280;42323;52.170;7.538;2023-04-22T12:42:49;100145.47;;;25.12;nan
56420;BME280;42323;52.170;7.538;2023-04-22T12:45:15;100149.25;;;26.86;nan
56420;BME280;42323;52.170;7.538;2023-04-22T12:47:42;100144.56;;;26.26;nan
56420;BME280;42323;52.170;7.538;2023-04-22T12:50:10;100140.38;;;26.01;nan
56420;BME280;42323;52.170;7.538;2023-04-22T12:52:37;100136.81;;;27.04;nan
56420;BME280;42323;52.170;7.538;2023-04-22T12:55:03;100138.59;;;28.90;nan
56420;BME280;42323;52.170;7.538;2023-04-22T12:57:31;100131.41;;;29.99;nan
56420;BME280;42323;52.170;7.538;2023-04-22T12:59:57;100127.28;;;29.10;nan
56420;BME280;42323;52.170;7.538;2023-04-22T13:02:24;100132.69;;;27.89;nan
56420;BME280;42323;52.170;7.538;2023-04-22T13:04:51;100128.47;;;27.33;nan
56420;BME280;42323;52.170;7.538;2023-04-22T13:07:18;100124.69;;;27.98;nan
56420;BME280;42323;52.170;7.538;2023-04-22T13:09:45;100121.84;;;28.70;nan
56420;BME280;42323;52.170;7.538;2023-04-22T13:12:11;100119.63;;;27.83;nan
56420;BME280;42323;52.170;7.538;2023-04-22T13:14:38;100116.41;;;28.17;nan
56420;BME280;42323;52.170;7.538;2023-04-22T13:17:05;100105.38;;;28.49;nan
56420;BME280;42323;52.170;7.538;2023-04-22T13:19:31;100112.28;;;28.19;nan